Time;durP1;ratioP1;P1;durP2;ratioP2;P2;SDS_P1;SDS_P2;PMS_P1;PMS_P2;Temp;Humidity;BMP_temperature;BMP_pressure;BME280_temperature;BME280_humidity;BME280_pressure;Samples;Min_cycle;Max_cycle;Signal;HPM_P1;HPM_P2
2024/01/09 00:01:16;;;;;;;4.00;1.50;;;-1.50;94.10;;;;;;5095647;28;20033;-64
2024/01/09 00:03:41;;;;;;;3.17;1.63;;;-1.50;94.10;;;;;;5095380;28;20063;-64
2024/01/09 00:06:16;;;;;;;5.57;1.75;;;-1.50;94.40;;;;;;5095551;28;20036;-64
2024/01/09 00:08:42;;;;;;;3.30;1.50;;;-1.50;94.00;;;;;;5095495;28;20036;-64
2024/01/09 00:11:11;;;;;;;3.67;1.30;;;-1.50;94.30;;;;;;5095508;28;20088;-64
2024/01/09 00:13:36;;;;;;;3.45;1.63;;;-1.50;94.20;;;;;;5095408;28;20382;-63
2024/01/09 00:16:02;;;;;;;8.23;1.20;;;-1.50;94.00;;;;;;5095391;28;20040;-63
2024/01/09 00:18:28;;;;;;;3.50;1.95;;;-1.50;94.50;;;;;;5095274;28;20092;-64
2024/01/09 00:20:54;;;;;;;3.55;1.65;;;-1.50;94.70;;;;;;5095165;28;20048;-64
2024/01/09 00:23:19;;;;;;;3.88;1.67;;;-1.50;94.00;;;;;;5094210;28;20028;-64
2024/01/09 00:25:45;;;;;;;3.03;1.55;;;-1.60;94.30;;;;;;5095274;28;20089;-63
2024/01/09 00:28:11;;;;;;;3.83;1.95;;;-1.60;94.60;;;;;;5095187;28;20028;-64
2024/01/09 00:30:36;;;;;;;4.68;2.10;;;-1.60;94.60;;;;;;5095109;28;20111;-64
2024/01/09 00:33:02;;;;;;;4.68;1.95;;;-1.60;94.70;;;;;;5094918;28;20020;-64
2024/01/09 00:35:28;;;;;;;2.75;1.58;;;-1.60;94.70;;;;;;5095188;28;20051;-64
2024/01/09 00:37:53;;;;;;;3.00;1.70;;;-1.60;95.10;;;;;;5094913;28;20111;-64
2024/01/09 00:40:19;;;;;;;3.65;1.83;;;-1.60;94.70;;;;;;5094998;28;20034;-64
2024/01/09 00:42:44;;;;;;;4.95;2.00;;;-1.70;94.80;;;;;;5094749;28;20033;-64
2024/01/09 00:45:10;;;;;;;4.07;2.00;;;-1.60;94.70;;;;;;5094906;28;20040;-63
2024/01/09 00:47:36;;;;;;;10.05;1.48;;;-1.60;94.70;;;;;;5094765;28;20032;-64
2024/01/09 00:50:02;;;;;;;3.17;1.48;;;-1.70;94.90;;;;;;5094734;28;20063;-64
2024/01/09 00:52:27;;;;;;;3.65;1.70;;;-1.70;94.70;;;;;;5094630;28;20032;-64
2024/01/09 00:54:53;;;;;;;2.35;1.38;;;-1.70;94.60;;;;;;5094631;28;20017;-64
2024/01/09 00:57:18;;;;;;;2.22;1.20;;;-1.70;94.60;;;;;;5094569;28;20032;-64
2024/01/09 00:59:44;;;;;;;3.85;1.70;;;-1.70;94.40;;;;;;5094589;28;20028;-64
2024/01/09 01:02:09;;;;;;;2.38;1.48;;;-1.80;94.50;;;;;;5094365;28;20037;-64
2024/01/09 01:04:38;;;;;;;3.45;1.58;;;-1.80;94.50;;;;;;5094507;28;20063;-64
2024/01/09 01:12:51;;;;;;;3.58;1.27;;;-1.80;94.90;;;;;;5093402;28;20020;-64
2024/01/09 01:15:17;;;;;;;3.70;1.35;;;-1.80;95.00;;;;;;5094371;28;20105;-64
2024/01/09 01:17:42;;;;;;;4.70;1.67;;;-1.80;94.90;;;;;;5094122;28;20056;-63
2024/01/09 01:20:09;;;;;;;2.83;1.17;;;-1.90;95.00;;;;;;5094189;28;20048;-63
2024/01/09 01:22:35;;;;;;;2.83;1.80;;;-1.90;95.30;;;;;;5094101;28;20054;-64
2024/01/09 01:25:01;;;;;;;3.78;1.63;;;-1.90;95.50;;;;;;5094060;28;20033;-63
2024/01/09 01:27:26;;;;;;;2.78;1.23;;;-1.90;95.60;;;;;;5093987;28;20478;-64
2024/01/09 01:29:52;;;;;;;3.00;1.20;;;-1.90;95.60;;;;;;5093951;28;20070;-64
2024/01/09 01:32:17;;;;;;;2.80;1.48;;;-1.90;95.70;;;;;;5093794;28;20027;-63
2024/01/09 01:34:43;;;;;;;5.90;1.45;;;-2.00;95.80;;;;;;5093871;28;20028;-64
2024/01/09 01:37:09;;;;;;;2.97;1.40;;;-2.00;96.20;;;;;;5093698;28;20052;-64
2024/01/09 01:40:24;;;;;;;3.78;1.67;;;-2.00;96.20;;;;;;5093829;28;20098;-64
2024/01/09 01:42:50;;;;;;;2.75;1.25;;;-2.00;96.10;;;;;;5093416;28;20039;-64
2024/01/09 01:45:20;;;;;;;3.80;1.30;;;-2.00;96.60;;;;;;5093171;28;20049;-64
2024/01/09 01:47:47;;;;;;;2.30;1.20;;;-2.00;96.40;;;;;;5093627;28;20025;-64
2024/01/09 01:50:14;;;;;;;3.65;1.40;;;-2.00;96.20;;;;;;5093551;28;20059;-64
2024/01/09 01:52:41;;;;;;;2.20;1.23;;;-2.00;96.40;;;;;;5093466;28;20050;-64
2024/01/09 01:55:09;;;;;;;1.90;1.08;;;-2.00;96.30;;;;;;5093519;28;20017;-64
2024/01/09 01:57:36;;;;;;;3.03;1.40;;;-2.00;96.50;;;;;;5093431;28;20101;-64
2024/01/09 02:00:02;;;;;;;2.75;1.63;;;-2.00;96.20;;;;;;5093475;28;20055;-64
2024/01/09 02:02:30;;;;;;;2.63;1.63;;;-2.10;96.50;;;;;;5093165;28;20107;-63
2024/01/09 02:04:56;;;;;;;2.58;1.35;;;-2.10;96.50;;;;;;5093159;28;20466;-65
2024/01/09 02:07:25;;;;;;;3.10;1.05;;;-2.00;96.20;;;;;;5093060;28;20029;-64
2024/01/09 02:09:53;;;;;;;4.30;1.65;;;-2.10;96.10;;;;;;5093171;28;20028;-64
2024/01/09 02:12:19;;;;;;;3.13;1.65;;;-2.10;96.50;;;;;;5093219;28;20032;-64
2024/01/09 02:14:46;;;;;;;2.00;1.02;;;-2.10;96.40;;;;;;5093099;28;20386;-64
2024/01/09 02:17:12;;;;;;;3.75;1.58;;;-2.00;96.50;;;;;;5093081;28;20107;-63
2024/01/09 02:19:38;;;;;;;4.03;1.77;;;-2.10;96.80;;;;;;5092867;28;20028;-64
2024/01/09 02:22:04;;;;;;;5.88;1.80;;;-2.10;96.60;;;;;;5092475;28;20107;-63
2024/01/09 02:24:29;;;;;;;3.63;1.58;;;-2.20;96.70;;;;;;5092918;28;20091;-64
2024/01/09 02:27:18;;;;;;;2.13;0.95;;;-2.10;96.70;;;;;;5092943;28;20028;-63
2024/01/09 02:29:50;;;;;;;0.60;0.52;;;-2.20;96.40;;;;;;5092884;28;20020;-63
2024/01/09 02:32:16;;;;;;;;;;;-2.10;96.50;;;;;;5092914;28;20043;-64
2024/01/09 02:34:44;;;;;;;3.88;0.93;;;-2.10;96.60;;;;;;5092773;28;19904;-64
2024/01/09 02:37:10;;;;;;;3.38;1.52;;;-2.10;96.90;;;;;;5092716;28;20020;-64
2024/01/09 02:39:36;;;;;;;2.45;1.15;;;-2.20;96.50;;;;;;5092629;28;20032;-64
2024/01/09 02:42:02;;;;;;;5.60;2.03;;;-2.20;97.10;;;;;;5092646;28;20024;-64
2024/01/09 02:44:28;;;;;;;1.90;1.15;;;-2.10;97.40;;;;;;5092360;28;20052;-63
2024/01/09 02:46:53;;;;;;;5.43;1.85;;;-2.10;96.80;;;;;;5092429;28;20035;-63
2024/01/09 02:49:19;;;;;;;2.33;1.17;;;-2.20;97.30;;;;;;5092576;28;20027;-64
2024/01/09 02:51:44;;;;;;;1.92;1.00;;;-2.10;97.00;;;;;;5092598;28;20081;-63
2024/01/09 02:54:10;;;;;;;2.83;1.75;;;-2.10;97.10;;;;;;5092482;28;20035;-64
2024/01/09 03:02:23;;;;;;;2.50;1.27;;;-2.10;97.00;;;;;;5092598;28;20028;-63
2024/01/09 03:04:49;;;;;;;3.17;1.42;;;-2.10;97.30;;;;;;5092511;28;20059;-63
2024/01/09 03:07:14;;;;;;;4.78;1.58;;;-2.10;96.90;;;;;;5092157;28;20028;-64
2024/01/09 03:09:43;;;;;;;5.53;2.05;;;-2.20;97.10;;;;;;5092294;28;20064;-63
2024/01/09 03:12:08;;;;;;;4.35;1.83;;;-2.20;97.10;;;;;;5092251;28;20021;-63
2024/01/09 03:14:41;;;;;;;3.65;1.25;;;-2.20;97.40;;;;;;5092221;28;20043;-64
2024/01/09 03:17:07;;;;;;;2.90;0.75;;;-2.30;97.30;;;;;;5092208;28;20021;-63
2024/01/09 03:19:33;;;;;;;1.73;1.20;;;-2.20;97.20;;;;;;5092213;28;20024;-63
2024/01/09 03:21:58;;;;;;;2.63;1.50;;;-2.30;97.10;;;;;;5092063;28;20037;-63
2024/01/09 03:24:24;;;;;;;4.90;1.85;;;-2.30;97.10;;;;;;5091108;28;20036;-63
2024/01/09 03:26:49;;;;;;;4.38;1.42;;;-2.30;97.30;;;;;;5092082;28;20033;-64
2024/01/09 03:29:18;;;;;;;3.33;1.15;;;-2.30;97.20;;;;;;5091996;28;20033;-64
2024/01/09 03:31:44;;;;;;;1.45;0.93;;;-2.30;97.40;;;;;;5091819;28;20021;-64
2024/01/09 03:34:09;;;;;;;4.00;2.17;;;-2.40;97.20;;;;;;5092157;28;20041;-63
2024/01/09 03:36:36;;;;;;;2.97;1.23;;;-2.40;97.00;;;;;;5096139;28;20059;-63
2024/01/09 03:39:04;;;;;;;3.85;1.50;;;-2.40;97.00;;;;;;5095223;28;20107;-63
2024/01/09 03:41:35;;;;;;;5.07;1.40;;;-2.40;97.50;;;;;;5095920;28;20107;-64
2024/01/09 03:44:01;;;;;;;2.70;1.40;;;-2.40;97.40;;;;;;5095660;28;20135;-63
2024/01/09 03:46:27;;;;;;;2.15;1.17;;;-2.40;97.30;;;;;;5095835;28;20036;-64
2024/01/09 03:48:52;;;;;;;1.52;1.17;;;-2.40;97.70;;;;;;5095944;28;20084;-63
2024/01/09 03:51:18;;;;;;;5.10;2.17;;;-2.40;97.70;;;;;;5095897;28;20041;-63
2024/01/09 03:53:44;;;;;;;2.60;1.42;;;-2.40;97.90;;;;;;5095788;28;20367;-63
2024/01/09 03:56:09;;;;;;;2.58;1.20;;;-2.40;98.00;;;;;;5095829;28;20114;-64
2024/01/09 03:58:35;;;;;;;3.45;1.30;;;-2.40;98.10;;;;;;5094715;28;20040;-63
2024/01/09 04:05:52;;;;;;;2.42;0.85;;;-2.50;97.80;;;;;;5077963;28;20470;-63
2024/01/09 04:08:17;;;;;;;6.32;1.85;;;-2.50;98.20;;;;;;5095227;28;20033;-64
2024/01/09 04:10:43;;;;;;;1.88;1.10;;;-2.50;98.10;;;;;;5095439;28;20032;-64
2024/01/09 04:13:09;;;;;;;2.42;1.33;;;-2.50;98.10;;;;;;5095401;28;20028;-63
2024/01/09 04:15:34;;;;;;;2.88;1.50;;;-2.50;98.00;;;;;;5095437;28;20272;-63
2024/01/09 04:18:01;;;;;;;3.17;1.52;;;-2.50;98.20;;;;;;5095385;28;20028;-63
2024/01/09 04:20:27;;;;;;;3.13;1.30;;;-2.50;98.10;;;;;;5095309;28;20052;-63
2024/01/09 04:22:52;;;;;;;2.88;1.75;;;-2.50;98.40;;;;;;5095202;28;20044;-63
2024/01/09 04:25:18;;;;;;;2.17;1.35;;;-2.50;97.90;;;;;;5095181;28;20076;-64
2024/01/09 04:27:44;;;;;;;0.93;0.80;;;-2.50;98.10;;;;;;5095139;28;20021;-63
2024/01/09 04:30:11;;;;;;;3.03;1.90;;;-2.50;98.00;;;;;;5095214;28;20019;-63
2024/01/09 04:32:36;;;;;;;1.88;0.93;;;-2.50;98.20;;;;;;5094910;28;20080;-64
2024/01/09 04:35:02;;;;;;;5.20;1.95;;;-2.50;98.20;;;;;;5095037;28;20043;-64
2024/01/09 04:37:27;;;;;;;4.18;1.65;;;-2.50;98.70;;;;;;5094885;28;20062;-63
2024/01/09 04:39:53;;;;;;;1.98;0.93;;;-2.60;98.70;;;;;;5094977;28;20066;-63
2024/01/09 04:42:19;;;;;;;2.40;0.47;;;-2.60;98.60;;;;;;5094919;28;20032;-63
2024/01/09 04:44:44;;;;;;;1.95;1.40;;;-2.60;98.70;;;;;;5093793;28;20059;-63
2024/01/09 04:47:15;;;;;;;3.90;1.98;;;-2.60;98.90;;;;;;5093671;28;20044;-63
2024/01/09 04:49:44;;;;;;;2.35;1.30;;;-2.70;99.30;;;;;;5093757;28;20033;-64
2024/01/09 04:52:09;;;;;;;6.38;2.03;;;-2.70;99.20;;;;;;5093580;28;20032;-63
2024/01/09 04:54:35;;;;;;;3.45;1.70;;;-2.70;99.70;;;;;;5093650;28;20029;-63
2024/01/09 04:57:00;;;;;;;3.88;1.40;;;-2.70;99.40;;;;;;5093559;28;20058;-63
2024/01/09 04:59:26;;;;;;;3.50;1.63;;;-2.60;99.60;;;;;;5093529;28;20033;-63
2024/01/09 05:01:52;;;;;;;6.18;1.80;;;-2.70;99.50;;;;;;5092257;28;20025;-63
2024/01/09 05:04:18;;;;;;;4.22;1.77;;;-2.70;99.50;;;;;;5093342;28;20052;-64
2024/01/09 05:06:43;;;;;;;5.88;2.42;;;-2.70;99.40;;;;;;5093238;28;20051;-63
2024/01/09 05:09:09;;;;;;;4.28;1.50;;;-2.60;99.50;;;;;;5093371;28;20036;-63
2024/01/09 05:11:35;;;;;;;4.65;1.88;;;-2.60;99.50;;;;;;5093306;28;20045;-63
2024/01/09 05:14:01;;;;;;;5.65;2.00;;;-2.60;99.60;;;;;;5093258;28;20086;-64
2024/01/09 05:16:27;;;;;;;4.70;1.95;;;-2.60;99.70;;;;;;5093145;28;20529;-63
2024/01/09 05:18:53;;;;;;;6.38;1.92;;;-2.60;99.50;;;;;;5093173;28;20031;-64
2024/01/09 05:21:19;;;;;;;6.35;2.03;;;-2.60;99.50;;;;;;5093065;28;20020;-64
2024/01/09 05:23:45;;;;;;;4.68;1.80;;;-2.50;99.40;;;;;;5093036;28;20474;-64
2024/01/09 05:26:11;;;;;;;5.47;2.10;;;-2.60;99.40;;;;;;5093123;28;20047;-63
2024/01/09 05:28:36;;;;;;;4.65;1.92;;;-2.60;99.50;;;;;;5092048;28;20054;-63
2024/01/09 05:31:02;;;;;;;3.58;1.55;;;-2.60;99.40;;;;;;5092982;28;20268;-63
2024/01/09 05:33:28;;;;;;;3.53;1.52;;;-2.70;99.50;;;;;;5092712;28;20033;-63
2024/01/09 05:35:54;;;;;;;4.15;2.00;;;-2.70;99.80;;;;;;5092764;28;20024;-64
2024/01/09 05:38:19;;;;;;;2.95;1.38;;;-2.70;99.90;;;;;;5092837;28;20058;-63
2024/01/09 05:40:46;;;;;;;4.47;1.58;;;-2.70;99.90;;;;;;5092846;28;20044;-63
2024/01/09 05:43:11;;;;;;;3.35;1.67;;;-2.80;99.70;;;;;;5092737;28;20031;-63
2024/01/09 05:45:37;;;;;;;6.93;1.75;;;-2.80;99.90;;;;;;5054559;28;1098975;-63
2024/01/09 05:48:03;;;;;;;6.90;2.45;;;-2.80;99.90;;;;;;5093630;28;20052;-64
2024/01/09 05:50:29;;;;;;;3.10;1.70;;;-2.80;99.90;;;;;;5093565;28;20036;-63
2024/01/09 05:52:54;;;;;;;4.20;1.88;;;-2.80;99.90;;;;;;5093482;28;20051;-63
2024/01/09 05:55:20;;;;;;;4.22;1.83;;;-2.80;99.90;;;;;;5093474;28;20440;-63
2024/01/09 05:57:46;;;;;;;3.25;1.70;;;-2.80;99.90;;;;;;5092690;28;20028;-63
2024/01/09 06:00:12;;;;;;;2.55;1.52;;;-2.90;99.90;;;;;;5093420;28;20024;-63
2024/01/09 06:02:38;;;;;;;3.22;1.80;;;-2.90;99.90;;;;;;5092095;28;20025;-63
2024/01/09 06:05:04;;;;;;;4.60;2.08;;;-2.90;99.90;;;;;;5093167;28;20063;-63
2024/01/09 06:07:29;;;;;;;4.47;1.70;;;-2.90;99.90;;;;;;5093180;28;20029;-63
2024/01/09 06:09:55;;;;;;;6.88;1.85;;;-2.90;99.90;;;;;;5093225;28;20036;-63
2024/01/09 06:12:20;;;;;;;6.85;2.85;;;-2.90;99.90;;;;;;5093163;28;20041;-63
2024/01/09 06:14:46;;;;;;;3.30;1.92;;;-2.90;99.90;;;;;;5093141;28;20059;-63
2024/01/09 06:17:12;;;;;;;5.55;1.92;;;-2.90;99.90;;;;;;5092921;28;20040;-64
2024/01/09 06:19:38;;;;;;;2.63;1.00;;;-3.00;99.90;;;;;;5092840;28;20079;-63
2024/01/09 06:22:04;;;;;;;2.88;1.73;;;-3.00;99.90;;;;;;5092939;28;20055;-63
2024/01/09 06:24:29;;;;;;;4.75;1.48;;;-3.00;99.90;;;;;;5092829;28;20025;-63
2024/01/09 06:26:55;;;;;;;4.78;2.50;;;-3.00;99.90;;;;;;5092827;28;20024;-63
2024/01/09 06:29:22;;;;;;;3.53;1.67;;;-3.00;99.90;;;;;;5092890;28;20487;-63
2024/01/09 06:31:47;;;;;;;5.35;2.08;;;-3.00;99.90;;;;;;5092549;28;20093;-63
2024/01/09 06:34:13;;;;;;;4.25;1.33;;;-2.90;99.90;;;;;;5092633;28;20036;-64
2024/01/09 06:36:39;;;;;;;3.45;1.98;;;-2.90;99.90;;;;;;5092686;28;20025;-63
2024/01/09 06:39:04;;;;;;;3.53;1.13;;;-2.90;99.90;;;;;;5092734;28;20032;-63
2024/01/09 06:41:30;;;;;;;3.80;1.77;;;-2.90;99.90;;;;;;5092573;28;20032;-63
2024/01/09 06:43:56;;;;;;;4.82;2.17;;;-2.90;99.90;;;;;;5092335;28;20072;-64
2024/01/09 06:46:21;;;;;;;3.97;1.48;;;-2.90;99.90;;;;;;5092547;28;20388;-63
2024/01/09 06:48:47;;;;;;;6.60;2.60;;;-2.90;99.90;;;;;;5092384;28;20013;-64
2024/01/09 06:51:13;;;;;;;3.47;2.13;;;-2.90;99.90;;;;;;5092543;28;20052;-63
2024/01/09 06:53:38;;;;;;;5.78;2.05;;;-2.90;99.90;;;;;;5091401;28;20032;-64
2024/01/09 06:56:05;;;;;;;5.40;1.98;;;-2.90;99.90;;;;;;5092163;28;20028;-63
2024/01/09 06:58:30;;;;;;;3.42;1.80;;;-2.90;99.90;;;;;;5092156;28;20025;-63
2024/01/09 07:00:56;;;;;;;8.27;2.28;;;-2.90;99.90;;;;;;5091814;28;20050;-63
2024/01/09 07:03:22;;;;;;;8.40;2.42;;;-2.90;99.90;;;;;;5091232;28;20028;-63
2024/01/09 07:05:47;;;;;;;6.40;2.30;;;-2.90;99.90;;;;;;5092021;28;20028;-63
2024/01/09 07:08:13;;;;;;;4.88;1.95;;;-2.90;99.90;;;;;;5091810;28;20047;-64
2024/01/09 07:10:39;;;;;;;5.95;2.00;;;-2.90;99.90;;;;;;5091970;28;20125;-63
2024/01/09 07:13:04;;;;;;;4.60;2.05;;;-2.90;99.90;;;;;;5091697;28;20084;-63
2024/01/09 07:15:30;;;;;;;2.78;1.60;;;-2.90;99.90;;;;;;5091938;28;20059;-63
2024/01/09 07:17:56;;;;;;;5.75;2.20;;;-3.00;99.90;;;;;;5091864;28;20021;-63
2024/01/09 07:20:21;;;;;;;4.57;2.10;;;-3.00;99.90;;;;;;5079850;28;20036;-63
2024/01/09 07:22:48;;;;;;;4.55;2.17;;;-3.00;99.90;;;;;;5071232;28;20045;-63
2024/01/09 07:25:14;;;;;;;5.63;1.55;;;-3.00;99.90;;;;;;5071435;28;20104;-63
2024/01/09 07:27:40;;;;;;;8.35;2.30;;;-3.00;99.90;;;;;;5071674;28;20013;-63
2024/01/09 07:30:06;;;;;;;4.68;2.00;;;-3.00;99.90;;;;;;5071684;28;20100;-63
2024/01/09 07:32:33;;;;;;;5.30;2.15;;;-3.00;99.90;;;;;;5071301;28;20107;-63
2024/01/09 07:34:59;;;;;;;9.27;2.45;;;-3.10;99.90;;;;;;5071494;28;20029;-63
2024/01/09 07:37:24;;;;;;;6.70;2.42;;;-3.10;99.90;;;;;;5071561;28;20037;-63
2024/01/09 07:39:50;;;;;;;4.22;2.38;;;-3.10;99.90;;;;;;5071527;28;20044;-63
2024/01/09 07:42:16;;;;;;;5.78;2.72;;;-3.10;99.90;;;;;;5071641;28;20040;-63
2024/01/09 07:44:41;;;;;;;4.47;1.80;;;-3.10;99.90;;;;;;5071415;28;20057;-63
2024/01/09 07:47:11;;;;;;;7.32;2.20;;;-3.10;99.90;;;;;;5071183;28;20033;-63
2024/01/09 07:49:38;;;;;;;2.47;1.27;;;-3.10;99.90;;;;;;5071576;28;20032;-63
2024/01/09 07:52:04;;;;;;;5.80;1.88;;;-3.10;99.90;;;;;;5067820;28;20049;-63
2024/01/09 07:54:30;;;;;;;3.75;2.35;;;-3.10;99.90;;;;;;5066698;28;20075;-63
2024/01/09 07:56:56;;;;;;;5.55;2.97;;;-3.10;99.90;;;;;;5069943;28;20029;-63
2024/01/09 07:59:22;;;;;;;3.63;1.98;;;-3.10;99.90;;;;;;5070820;28;20025;-63
2024/01/09 08:01:56;;;;;;;5.72;2.20;;;-3.10;99.90;;;;;;5070715;28;20086;-63
2024/01/09 08:04:22;;;;;;;7.20;2.15;;;-3.10;99.90;;;;;;5071533;28;20025;-63
2024/01/09 08:06:51;;;;;;;6.78;2.53;;;-3.10;99.90;;;;;;5071658;28;20045;-63
2024/01/09 08:09:18;;;;;;;5.05;2.42;;;-3.10;99.90;;;;;;5071776;28;20022;-63
2024/01/09 08:11:44;;;;;;;4.13;2.03;;;-3.10;99.90;;;;;;5071699;28;20112;-63
2024/01/09 08:14:11;;;;;;;5.07;1.80;;;-3.10;99.90;;;;;;5071644;28;20029;-63
2024/01/09 08:16:37;;;;;;;2.88;1.02;;;-3.00;99.80;;;;;;5071703;28;20059;-63
2024/01/09 08:19:04;;;;;;;5.10;2.10;;;-3.10;99.20;;;;;;5071619;28;20033;-63
2024/01/09 08:21:31;;;;;;;6.18;2.65;;;-3.10;99.70;;;;;;5074696;28;20025;-63
2024/01/09 08:23:57;;;;;;;2.35;1.65;;;-3.00;99.20;;;;;;5075268;28;20391;-63
2024/01/09 08:26:22;;;;;;;7.35;2.33;;;-3.10;99.20;;;;;;5075197;28;20033;-63
2024/01/09 08:28:48;;;;;;;5.45;1.83;;;-3.10;99.30;;;;;;5074829;28;20028;-63
2024/01/09 08:31:14;;;;;;;4.05;2.65;;;-3.00;99.30;;;;;;5075075;28;20098;-63
2024/01/09 08:33:39;;;;;;;4.68;2.50;;;-3.00;99.20;;;;;;5074896;28;20116;-63
2024/01/09 08:36:05;;;;;;;4.95;1.95;;;-3.00;99.50;;;;;;5075015;28;20067;-64
2024/01/09 08:38:31;;;;;;;3.55;1.77;;;-3.00;99.30;;;;;;5074901;28;20029;-63
2024/01/09 08:40:56;;;;;;;12.70;2.47;;;-3.00;99.00;;;;;;5075277;28;20033;-63
2024/01/09 08:43:22;;;;;;;3.85;2.03;;;-3.00;99.30;;;;;;5093532;28;20039;-63
2024/01/09 08:45:51;;;;;;;5.70;2.20;;;-3.00;99.10;;;;;;5093922;28;20044;-63
2024/01/09 08:48:17;;;;;;;6.07;2.55;;;-2.90;99.20;;;;;;5093100;28;20044;-63
2024/01/09 08:50:43;;;;;;;3.17;1.95;;;-2.90;99.60;;;;;;5094299;28;20054;-63
2024/01/09 08:53:09;;;;;;;1.63;0.88;;;-2.80;99.60;;;;;;5094792;28;20029;-64
2024/01/09 08:55:35;;;;;;;5.85;2.80;;;-2.80;98.80;;;;;;5094646;28;20025;-63
2024/01/09 08:58:00;;;;;;;5.03;2.13;;;-2.80;98.80;;;;;;5094513;28;20027;-63
2024/01/09 09:00:26;;;;;;;5.75;2.70;;;-2.70;98.50;;;;;;5094652;28;20036;-63
2024/01/09 09:02:52;;;;;;;7.63;2.13;;;-2.70;98.10;;;;;;5094423;28;20047;-63
2024/01/09 09:05:18;;;;;;;5.35;1.80;;;-2.60;98.50;;;;;;5094486;28;20032;-63
2024/01/09 09:07:43;;;;;;;1.50;0.98;;;-2.60;98.60;;;;;;5094431;28;20036;-63
2024/01/09 09:10:09;;;;;;;7.75;2.78;;;-2.50;98.10;;;;;;5093404;28;20036;-63
2024/01/09 09:12:35;;;;;;;2.78;1.48;;;-2.50;97.70;;;;;;5094289;28;20017;-64
2024/01/09 09:15:04;;;;;;;5.78;2.03;;;-2.50;97.50;;;;;;5093318;28;20025;-63
2024/01/09 09:17:30;;;;;;;5.00;1.85;;;-2.50;97.40;;;;;;5094246;28;20024;-63
2024/01/09 09:19:57;;;;;;;6.15;2.53;;;-2.50;96.90;;;;;;5094157;28;20052;-63
2024/01/09 09:22:25;;;;;;;7.20;2.67;;;-2.40;97.00;;;;;;5094232;28;20024;-63
2024/01/09 09:24:54;;;;;;;5.32;1.15;;;-2.30;97.10;;;;;;5094074;28;20055;-63
2024/01/09 09:27:20;;;;;;;6.55;2.20;;;-2.30;96.50;;;;;;5094085;28;20043;-63
2024/01/09 09:29:45;;;;;;;9.95;2.30;;;-2.30;96.90;;;;;;5094055;28;20033;-63
2024/01/09 09:32:11;;;;;;;8.27;2.65;;;-2.20;96.60;;;;;;5092588;28;20279;-63
2024/01/09 09:34:40;;;;;;;4.18;1.40;;;-2.20;96.50;;;;;;5093038;28;20060;-63
2024/01/09 09:37:06;;;;;;;5.22;2.72;;;-2.10;96.60;;;;;;5093782;28;20062;-64
2024/01/09 09:39:32;;;;;;;4.85;2.58;;;-2.10;96.30;;;;;;5093704;28;20029;-64
2024/01/09 09:41:58;;;;;;;8.30;2.90;;;-2.00;96.40;;;;;;5093766;28;20036;-63
2024/01/09 09:44:26;;;;;;;6.18;2.35;;;-1.90;95.90;;;;;;5093580;28;20063;-63
2024/01/09 09:46:52;;;;;;;7.13;2.40;;;-1.90;95.90;;;;;;5093760;28;20436;-63
2024/01/09 09:49:21;;;;;;;5.47;2.67;;;-1.90;95.10;;;;;;5093711;28;20080;-63
2024/01/09 09:51:47;;;;;;;8.02;2.75;;;-1.80;95.50;;;;;;5093572;28;20021;-63
2024/01/09 09:54:14;;;;;;;6.10;2.88;;;-1.80;94.80;;;;;;5093538;28;20020;-63
2024/01/09 09:56:41;;;;;;;4.65;2.00;;;-1.70;94.30;;;;;;5093580;28;20102;-63
2024/01/09 09:59:09;;;;;;;2.63;1.63;;;-1.70;94.30;;;;;;5092546;28;20032;-64
2024/01/09 10:01:35;;;;;;;6.85;2.25;;;-1.60;94.20;;;;;;5093164;28;20029;-64
2024/01/09 10:04:07;;;;;;;7.38;2.65;;;-1.60;94.40;;;;;;5093379;28;20028;-64
2024/01/09 10:06:36;;;;;;;3.50;1.88;;;-1.50;94.50;;;;;;5093148;28;20025;-64
2024/01/09 10:09:03;;;;;;;6.57;2.80;;;-1.40;94.00;;;;;;5093151;28;20155;-63
2024/01/09 10:11:32;;;;;;;1.85;1.08;;;-1.40;93.80;;;;;;5092224;28;20017;-64
2024/01/09 10:13:58;;;;;;;2.40;1.25;;;-1.30;93.80;;;;;;5093196;28;20021;-63
2024/01/09 10:16:24;;;;;;;6.85;2.58;;;-1.30;93.10;;;;;;5092076;28;20169;-63
2024/01/09 10:18:54;;;;;;;3.53;1.85;;;-1.20;93.20;;;;;;5093106;28;20498;-63
2024/01/09 10:21:19;;;;;;;6.00;2.35;;;-1.20;92.80;;;;;;5092899;28;20023;-63
2024/01/09 10:23:45;;;;;;;7.47;2.67;;;-1.10;92.40;;;;;;5092889;28;20020;-63
2024/01/09 10:26:11;;;;;;;6.75;2.83;;;-1.10;92.70;;;;;;5092935;28;20071;-63
2024/01/09 10:28:37;;;;;;;6.10;2.38;;;-1.00;92.10;;;;;;5092972;28;20029;-63
2024/01/09 10:31:06;;;;;;;5.38;1.92;;;-1.00;91.80;;;;;;5092873;28;20047;-64
2024/01/09 10:33:32;;;;;;;3.30;1.67;;;-1.00;91.90;;;;;;5092550;28;20021;-63
2024/01/09 10:35:58;;;;;;;5.20;2.00;;;-0.90;91.00;;;;;;5092709;28;20025;-64
2024/01/09 10:38:25;;;;;;;5.45;1.50;;;-0.90;91.40;;;;;;5092600;28;20050;-63
2024/01/09 10:40:55;;;;;;;5.38;2.60;;;-0.90;90.50;;;;;;5092718;28;20433;-64
2024/01/09 10:43:26;;;;;;;4.45;2.40;;;-0.80;90.60;;;;;;5092319;28;20020;-63
2024/01/09 10:45:52;;;;;;;2.20;1.98;;;-0.80;90.60;;;;;;5092480;28;20036;-63
2024/01/09 10:48:21;;;;;;;6.22;3.13;;;-0.70;91.90;;;;;;5092531;28;20038;-63
2024/01/09 10:50:50;;;;;;;6.95;3.15;;;-0.60;91.20;;;;;;5092554;28;20107;-63
2024/01/09 10:53:16;;;;;;;5.60;2.70;;;-0.50;91.10;;;;;;5092580;28;20029;-63
2024/01/09 10:55:44;;;;;;;8.85;2.90;;;-0.50;90.70;;;;;;5092461;28;20035;-63
2024/01/09 10:58:11;;;;;;;4.28;2.17;;;-0.40;89.10;;;;;;5092529;28;20041;-63
2024/01/09 11:00:38;;;;;;;5.82;3.10;;;-0.40;89.50;;;;;;5092443;28;20024;-63
2024/01/09 11:03:04;;;;;;;7.78;3.10;;;-0.30;89.80;;;;;;5092050;28;20052;-63
2024/01/09 11:05:30;;;;;;;4.57;2.08;;;-0.20;89.20;;;;;;5092312;28;20088;-63
2024/01/09 11:07:58;;;;;;;6.55;2.80;;;-0.20;88.30;;;;;;5087501;28;20033;-63
2024/01/09 11:10:25;;;;;;;5.32;3.00;;;-0.10;87.30;;;;;;5072251;28;20029;-64
2024/01/09 11:12:53;;;;;;;8.52;2.90;;;0.00;87.00;;;;;;5072196;28;20035;-63
2024/01/09 11:15:44;;;;;;;7.25;2.42;;;0.00;86.70;;;;;;5072108;28;20032;-64
2024/01/09 11:18:14;;;;;;;8.80;3.72;;;0.00;83.10;;;;;;5072103;28;20029;-64
2024/01/09 11:20:40;;;;;;;4.43;1.77;;;0.10;84.90;;;;;;5071923;28;20029;-63
2024/01/09 11:23:06;;;;;;;3.50;2.10;;;0.10;84.00;;;;;;5071195;28;20479;-63
2024/01/09 11:25:33;;;;;;;6.07;2.25;;;0.20;83.10;;;;;;5072001;28;20037;-63
2024/01/09 11:28:00;;;;;;;5.55;2.90;;;0.20;83.50;;;;;;5071965;28;20084;-64
2024/01/09 11:30:27;;;;;;;3.50;1.92;;;0.20;80.90;;;;;;5071938;28;20021;-63
2024/01/09 11:32:53;;;;;;;3.72;2.00;;;0.30;81.30;;;;;;5071695;28;20014;-63
2024/01/09 11:35:23;;;;;;;4.18;1.77;;;0.40;80.50;;;;;;5071959;28;20056;-63
2024/01/09 11:37:51;;;;;;;4.50;2.28;;;0.40;77.90;;;;;;5071983;28;20170;-63
2024/01/09 11:40:19;;;;;;;6.57;2.33;;;0.40;79.60;;;;;;5070853;28;20081;-64
2024/01/09 11:42:47;;;;;;;4.65;2.40;;;0.50;78.80;;;;;;5079817;28;20020;-64
2024/01/09 11:45:20;;;;;;;5.20;2.40;;;0.60;78.00;;;;;;5091853;28;20068;-63
2024/01/09 11:47:45;;;;;;;;;;;0.60;77.00;;;;;;5092326;28;20052;-64
2024/01/09 11:50:11;;;;;;;3.75;1.90;;;0.70;76.60;;;;;;5091580;28;19909;-64
2024/01/09 11:52:39;;;;;;;2.95;1.63;;;0.70;74.00;;;;;;5091738;28;20046;-64
2024/01/09 11:55:06;;;;;;;4.55;1.80;;;0.70;74.20;;;;;;5092807;28;20047;-63
2024/01/09 11:57:32;;;;;;;5.43;2.42;;;0.70;73.00;;;;;;5095699;28;20025;-64
2024/01/09 12:00:03;;;;;;;6.22;2.40;;;0.80;73.50;;;;;;5095714;28;20025;-64
2024/01/09 12:02:28;;;;;;;3.50;1.70;;;0.90;72.50;;;;;;5095647;28;20033;-64
2024/01/09 12:04:54;;;;;;;4.57;2.20;;;1.00;73.10;;;;;;5095604;28;20075;-64
2024/01/09 12:07:20;;;;;;;2.95;1.50;;;1.10;71.30;;;;;;5095440;28;20045;-64
2024/01/09 12:09:49;;;;;;;4.68;2.33;;;1.10;69.90;;;;;;5095581;28;20064;-64
2024/01/09 12:12:33;;;;;;;6.55;2.25;;;1.20;70.50;;;;;;5095603;28;20020;-64
2024/01/09 12:15:00;;;;;;;4.68;2.00;;;1.30;68.70;;;;;;5095460;28;20032;-63
2024/01/09 12:17:33;;;;;;;5.93;2.15;;;1.40;70.70;;;;;;5095485;28;20039;-63
2024/01/09 12:20:05;;;;;;;4.18;1.70;;;1.50;69.50;;;;;;5095302;28;20107;-64
2024/01/09 12:22:31;;;;;;;6.65;2.60;;;1.50;69.00;;;;;;5095373;28;20047;-64
2024/01/09 12:24:58;;;;;;;5.75;2.40;;;1.60;69.40;;;;;;5095229;28;20033;-64
2024/01/09 12:27:25;;;;;;;5.40;2.35;;;1.60;66.20;;;;;;5095310;28;20024;-64
2024/01/09 12:29:54;;;;;;;4.60;2.55;;;1.70;67.50;;;;;;5095205;28;20028;-63
2024/01/09 12:32:23;;;;;;;5.40;2.22;;;1.70;67.30;;;;;;5094899;28;20025;-63
2024/01/09 12:34:49;;;;;;;4.35;1.88;;;1.70;66.50;;;;;;5095101;28;20032;-63
2024/01/09 12:37:15;;;;;;;3.88;1.73;;;1.80;66.60;;;;;;5095016;28;20070;-63
2024/01/09 12:39:41;;;;;;;4.78;2.10;;;1.80;64.00;;;;;;5095084;28;20032;-63
2024/01/09 12:42:08;;;;;;;5.13;2.13;;;1.70;64.30;;;;;;5079125;28;20032;-64
2024/01/09 12:44:36;;;;;;;5.95;2.47;;;1.70;65.90;;;;;;5074662;28;20053;-63
2024/01/09 12:47:03;;;;;;;6.20;2.47;;;1.70;64.20;;;;;;5074725;28;20032;-63
2024/01/09 12:49:28;;;;;;;6.00;2.42;;;1.80;64.70;;;;;;5073907;28;20051;-64
2024/01/09 12:51:57;;;;;;;6.90;2.20;;;1.80;65.70;;;;;;5072852;28;20033;-63
2024/01/09 12:54:23;;;;;;;7.57;1.90;;;1.80;63.40;;;;;;5072765;28;20040;-63
2024/01/09 12:56:49;;;;;;;3.97;1.80;;;1.80;64.20;;;;;;5072677;28;20045;-63
2024/01/09 12:59:26;;;;;;;4.60;1.70;;;1.80;63.70;;;;;;5072631;28;20388;-64
2024/01/09 13:01:53;;;;;;;4.70;2.38;;;1.80;62.00;;;;;;5072452;28;20298;-63